sensor_id;sensor_type;location;lat;lon;timestamp;temperature;humidity
74294;DHT22;64044;59.904;10.738;2023-04-24T00:00:28;9.60;62.20
74294;DHT22;64044;59.904;10.738;2023-04-24T00:02:54;9.60;62.20
74294;DHT22;64044;59.904;10.738;2023-04-24T00:05:22;9.50;62.20
74294;DHT22;64044;59.904;10.738;2023-04-24T00:07:48;9.50;62.30
74294;DHT22;64044;59.904;10.738;2023-04-24T00:10:14;9.50;62.30
74294;DHT22;64044;59.904;10.738;2023-04-24T00:12:39;9.50;62.30
74294;DHT22;64044;59.904;10.738;2023-04-24T00:15:05;9.40;62.40
74294;DHT22;64044;59.904;10.738;2023-04-24T00:17:31;9.40;62.50
74294;DHT22;64044;59.904;10.738;2023-04-24T00:19:57;9.40;62.60
74294;DHT22;64044;59.904;10.738;2023-04-24T00:22:28;9.40;62.60
74294;DHT22;64044;59.904;10.738;2023-04-24T00:24:54;9.40;62.70
74294;DHT22;64044;59.904;10.738;2023-04-24T00:27:20;9.40;62.90
74294;DHT22;64044;59.904;10.738;2023-04-24T00:29:46;9.40;63.00
74294;DHT22;64044;59.904;10.738;2023-04-24T00:32:11;9.40;62.80
74294;DHT22;64044;59.904;10.738;2023-04-24T00:34:37;9.30;62.90
74294;DHT22;64044;59.904;10.738;2023-04-24T00:37:03;9.30;63.10
74294;DHT22;64044;59.904;10.738;2023-04-24T00:39:29;9.30;63.00
74294;DHT22;64044;59.904;10.738;2023-04-24T00:41:54;9.30;63.00
74294;DHT22;64044;59.904;10.738;2023-04-24T00:44:20;9.30;63.50
74294;DHT22;64044;59.904;10.738;2023-04-24T00:46:46;9.30;63.10
74294;DHT22;64044;59.904;10.738;2023-04-24T00:49:18;9.30;63.00
74294;DHT22;64044;59.904;10.738;2023-04-24T00:51:44;9.30;63.10
74294;DHT22;64044;59.904;10.738;2023-04-24T00:54:11;9.20;63.20
74294;DHT22;64044;59.904;10.738;2023-04-24T00:56:37;9.20;63.10
74294;DHT22;64044;59.904;10.738;2023-04-24T00:59:03;9.20;63.20
74294;DHT22;64044;59.904;10.738;2023-04-24T01:01:30;9.20;63.40
74294;DHT22;64044;59.904;10.738;2023-04-24T01:03:56;9.20;63.40
74294;DHT22;64044;59.904;10.738;2023-04-24T01:06:23;9.20;63.60
74294;DHT22;64044;59.904;10.738;2023-04-24T01:08:52;9.20;63.50
74294;DHT22;64044;59.904;10.738;2023-04-24T01:11:19;9.20;63.50
74294;DHT22;64044;59.904;10.738;2023-04-24T01:13:45;9.20;63.60
74294;DHT22;64044;59.904;10.738;2023-04-24T01:16:11;9.20;63.60
74294;DHT22;64044;59.904;10.738;2023-04-24T01:18:37;9.20;63.60
74294;DHT22;64044;59.904;10.738;2023-04-24T01:21:04;9.20;63.60
74294;DHT22;64044;59.904;10.738;2023-04-24T01:23:30;9.10;63.70
74294;DHT22;64044;59.904;10.738;2023-04-24T01:25:56;9.10;63.70
74294;DHT22;64044;59.904;10.738;2023-04-24T01:28:22;9.10;63.90
74294;DHT22;64044;59.904;10.738;2023-04-24T01:30:48;9.10;63.70
74294;DHT22;64044;59.904;10.738;2023-04-24T01:33:14;9.10;63.80
74294;DHT22;64044;59.904;10.738;2023-04-24T01:35:40;9.10;63.70
74294;DHT22;64044;59.904;10.738;2023-04-24T01:38:06;9.10;63.70
74294;DHT22;64044;59.904;10.738;2023-04-24T01:40:32;9.10;63.90
74294;DHT22;64044;59.904;10.738;2023-04-24T01:42:58;9.10;63.80
74294;DHT22;64044;59.904;10.738;2023-04-24T01:45:24;9.10;63.60
74294;DHT22;64044;59.904;10.738;2023-04-24T01:47:50;9.10;63.80
74294;DHT22;64044;59.904;10.738;2023-04-24T01:50:17;9.00;63.70
74294;DHT22;64044;59.904;10.738;2023-04-24T01:52:43;9.00;63.80
74294;DHT22;64044;59.904;10.738;2023-04-24T01:55:10;9.00;63.90
74294;DHT22;64044;59.904;10.738;2023-04-24T01:57:36;9.00;64.00
74294;DHT22;64044;59.904;10.738;2023-04-24T02:00:03;8.90;64.10
74294;DHT22;64044;59.904;10.738;2023-04-24T02:02:30;8.90;64.40
74294;DHT22;64044;59.904;10.738;2023-04-24T02:04:56;8.90;64.50
74294;DHT22;64044;59.904;10.738;2023-04-24T02:07:48;8.90;64.50
74294;DHT22;64044;59.904;10.738;2023-04-24T02:10:13;8.90;64.70
74294;DHT22;64044;59.904;10.738;2023-04-24T02:12:39;8.90;64.90
74294;DHT22;64044;59.904;10.738;2023-04-24T02:15:05;8.80;65.00
74294;DHT22;64044;59.904;10.738;2023-04-24T02:17:31;8.80;65.10
74294;DHT22;64044;59.904;10.738;2023-04-24T02:19:57;8.80;65.10
74294;DHT22;64044;59.904;10.738;2023-04-24T02:22:23;8.80;64.90
74294;DHT22;64044;59.904;10.738;2023-04-24T02:24:49;8.80;64.90
74294;DHT22;64044;59.904;10.738;2023-04-24T02:27:15;8.80;65.00
74294;DHT22;64044;59.904;10.738;2023-04-24T02:29:40;8.80;65.00
74294;DHT22;64044;59.904;10.738;2023-04-24T02:32:06;8.80;65.00
74294;DHT22;64044;59.904;10.738;2023-04-24T02:34:32;8.80;65.00
74294;DHT22;64044;59.904;10.738;2023-04-24T02:36:57;8.80;65.30
74294;DHT22;64044;59.904;10.738;2023-04-24T02:39:23;8.80;65.20
74294;DHT22;64044;59.904;10.738;2023-04-24T02:41:49;8.80;65.20
74294;DHT22;64044;59.904;10.738;2023-04-24T02:44:14;8.80;65.20
74294;DHT22;64044;59.904;10.738;2023-04-24T02:46:40;8.80;65.40
74294;DHT22;64044;59.904;10.738;2023-04-24T02:49:07;8.80;65.80
74294;DHT22;64044;59.904;10.738;2023-04-24T02:51:33;8.70;65.50
74294;DHT22;64044;59.904;10.738;2023-04-24T02:53:58;8.80;65.50
74294;DHT22;64044;59.904;10.738;2023-04-24T02:56:24;8.80;65.50
74294;DHT22;64044;59.904;10.738;2023-04-24T02:58:50;8.80;66.10
74294;DHT22;64044;59.904;10.738;2023-04-24T03:01:16;8.80;65.70
74294;DHT22;64044;59.904;10.738;2023-04-24T03:03:42;8.80;65.70
74294;DHT22;64044;59.904;10.738;2023-04-24T03:06:08;8.80;66.10
74294;DHT22;64044;59.904;10.738;2023-04-24T03:08:34;8.80;65.60
74294;DHT22;64044;59.904;10.738;2023-04-24T03:11:00;8.80;65.60
74294;DHT22;64044;59.904;10.738;2023-04-24T03:13:25;8.80;65.70
74294;DHT22;64044;59.904;10.738;2023-04-24T03:15:51;8.80;65.40
74294;DHT22;64044;59.904;10.738;2023-04-24T03:18:18;8.90;65.40
74294;DHT22;64044;59.904;10.738;2023-04-24T03:20:45;8.80;65.20
74294;DHT22;64044;59.904;10.738;2023-04-24T03:23:12;8.90;65.50
74294;DHT22;64044;59.904;10.738;2023-04-24T03:25:37;8.80;65.10
74294;DHT22;64044;59.904;10.738;2023-04-24T03:28:03;8.80;65.10
74294;DHT22;64044;59.904;10.738;2023-04-24T03:30:28;8.80;65.40
74294;DHT22;64044;59.904;10.738;2023-04-24T03:32:54;8.80;65.10
74294;DHT22;64044;59.904;10.738;2023-04-24T03:35:20;8.80;65.20
74294;DHT22;64044;59.904;10.738;2023-04-24T03:37:47;8.80;65.20
74294;DHT22;64044;59.904;10.738;2023-04-24T03:40:13;8.80;65.30
74294;DHT22;64044;59.904;10.738;2023-04-24T03:42:38;8.80;65.20
74294;DHT22;64044;59.904;10.738;2023-04-24T03:45:05;8.80;65.20
74294;DHT22;64044;59.904;10.738;2023-04-24T03:47:31;8.70;65.20
74294;DHT22;64044;59.904;10.738;2023-04-24T03:49:56;8.80;65.30
74294;DHT22;64044;59.904;10.738;2023-04-24T03:52:22;8.70;65.20
74294;DHT22;64044;59.904;10.738;2023-04-24T03:54:48;8.70;65.30
74294;DHT22;64044;59.904;10.738;2023-04-24T03:57:13;8.70;65.20
74294;DHT22;64044;59.904;10.738;2023-04-24T03:59:39;8.70;65.30
74294;DHT22;64044;59.904;10.738;2023-04-24T04:02:05;8.70;65.30
74294;DHT22;64044;59.904;10.738;2023-04-24T04:04:30;8.70;65.20
74294;DHT22;64044;59.904;10.738;2023-04-24T04:06:56;8.70;65.30
74294;DHT22;64044;59.904;10.738;2023-04-24T04:09:22;8.70;65.20
74294;DHT22;64044;59.904;10.738;2023-04-24T04:11:47;8.70;65.30
74294;DHT22;64044;59.904;10.738;2023-04-24T04:14:13;8.70;65.20
74294;DHT22;64044;59.904;10.738;2023-04-24T04:16:39;8.70;65.10
74294;DHT22;64044;59.904;10.738;2023-04-24T04:19:05;8.60;65.20
74294;DHT22;64044;59.904;10.738;2023-04-24T04:21:30;8.60;65.20
74294;DHT22;64044;59.904;10.738;2023-04-24T04:23:57;8.60;65.50
74294;DHT22;64044;59.904;10.738;2023-04-24T04:26:23;8.60;65.40
74294;DHT22;64044;59.904;10.738;2023-04-24T04:28:51;8.60;65.40
74294;DHT22;64044;59.904;10.738;2023-04-24T04:31:18;8.60;65.40
74294;DHT22;64044;59.904;10.738;2023-04-24T04:33:45;8.60;65.40
74294;DHT22;64044;59.904;10.738;2023-04-24T04:36:10;8.60;65.30
74294;DHT22;64044;59.904;10.738;2023-04-24T04:38:37;8.60;65.50
74294;DHT22;64044;59.904;10.738;2023-04-24T04:41:03;8.60;65.40
74294;DHT22;64044;59.904;10.738;2023-04-24T04:43:29;8.60;65.40
74294;DHT22;64044;59.904;10.738;2023-04-24T04:45:57;8.50;65.20
74294;DHT22;64044;59.904;10.738;2023-04-24T04:48:23;8.50;65.40
74294;DHT22;64044;59.904;10.738;2023-04-24T04:50:48;8.50;65.20
74294;DHT22;64044;59.904;10.738;2023-04-24T04:53:14;8.50;65.20
74294;DHT22;64044;59.904;10.738;2023-04-24T04:55:40;8.50;65.20
74294;DHT22;64044;59.904;10.738;2023-04-24T04:58:06;8.50;65.10
74294;DHT22;64044;59.904;10.738;2023-04-24T05:00:32;8.50;65.00
74294;DHT22;64044;59.904;10.738;2023-04-24T05:03:01;8.50;65.00
74294;DHT22;64044;59.904;10.738;2023-04-24T05:05:27;8.40;64.90
74294;DHT22;64044;59.904;10.738;2023-04-24T05:07:52;8.40;65.00
74294;DHT22;64044;59.904;10.738;2023-04-24T05:10:18;8.40;65.00
74294;DHT22;64044;59.904;10.738;2023-04-24T05:12:44;8.40;65.00
74294;DHT22;64044;59.904;10.738;2023-04-24T05:15:10;8.30;64.90
74294;DHT22;64044;59.904;10.738;2023-04-24T05:17:36;8.30;65.00
74294;DHT22;64044;59.904;10.738;2023-04-24T05:20:03;8.30;65.10
74294;DHT22;64044;59.904;10.738;2023-04-24T05:22:31;8.30;65.20
74294;DHT22;64044;59.904;10.738;2023-04-24T05:24:56;8.30;65.20
74294;DHT22;64044;59.904;10.738;2023-04-24T05:27:22;8.20;65.20
74294;DHT22;64044;59.904;10.738;2023-04-24T05:29:48;8.30;65.60
74294;DHT22;64044;59.904;10.738;2023-04-24T05:32:14;8.30;65.30
74294;DHT22;64044;59.904;10.738;2023-04-24T05:34:40;8.30;65.30
74294;DHT22;64044;59.904;10.738;2023-04-24T05:37:06;8.30;65.20
74294;DHT22;64044;59.904;10.738;2023-04-24T05:39:34;8.20;65.30
74294;DHT22;64044;59.904;10.738;2023-04-24T05:42:01;8.20;65.10
74294;DHT22;64044;59.904;10.738;2023-04-24T05:44:27;8.30;65.30
74294;DHT22;64044;59.904;10.738;2023-04-24T05:46:53;8.20;66.00
74294;DHT22;64044;59.904;10.738;2023-04-24T05:49:20;8.20;65.20
74294;DHT22;64044;59.904;10.738;2023-04-24T05:51:46;8.20;65.20
74294;DHT22;64044;59.904;10.738;2023-04-24T05:54:12;8.20;65.70
74294;DHT22;64044;59.904;10.738;2023-04-24T05:56:38;8.20;65.40
74294;DHT22;64044;59.904;10.738;2023-04-24T05:59:04;8.20;65.30
74294;DHT22;64044;59.904;10.738;2023-04-24T06:01:29;8.20;65.40
74294;DHT22;64044;59.904;10.738;2023-04-24T06:03:57;8.20;65.50
74294;DHT22;64044;59.904;10.738;2023-04-24T06:06:23;8.20;65.50
74294;DHT22;64044;59.904;10.738;2023-04-24T06:08:49;8.20;65.40
74294;DHT22;64044;59.904;10.738;2023-04-24T06:11:15;8.20;65.40
74294;DHT22;64044;59.904;10.738;2023-04-24T06:13:41;8.20;65.40
74294;DHT22;64044;59.904;10.738;2023-04-24T06:16:07;8.10;65.40
74294;DHT22;64044;59.904;10.738;2023-04-24T06:18:33;8.10;65.40
74294;DHT22;64044;59.904;10.738;2023-04-24T06:20:59;8.10;65.40
74294;DHT22;64044;59.904;10.738;2023-04-24T06:23:24;8.10;65.30
74294;DHT22;64044;59.904;10.738;2023-04-24T06:25:51;8.10;65.40
74294;DHT22;64044;59.904;10.738;2023-04-24T06:28:17;8.00;65.30
74294;DHT22;64044;59.904;10.738;2023-04-24T06:30:42;8.00;65.50
74294;DHT22;64044;59.904;10.738;2023-04-24T06:33:09;8.00;65.50
74294;DHT22;64044;59.904;10.738;2023-04-24T06:35:35;8.00;65.70
74294;DHT22;64044;59.904;10.738;2023-04-24T06:38:01;8.00;65.60
74294;DHT22;64044;59.904;10.738;2023-04-24T06:40:27;8.00;65.50
74294;DHT22;64044;59.904;10.738;2023-04-24T06:42:53;8.00;65.50
74294;DHT22;64044;59.904;10.738;2023-04-24T06:45:18;8.00;65.50
74294;DHT22;64044;59.904;10.738;2023-04-24T06:47:44;8.00;65.50
74294;DHT22;64044;59.904;10.738;2023-04-24T06:50:10;7.90;65.60
74294;DHT22;64044;59.904;10.738;2023-04-24T06:52:37;8.00;65.80
74294;DHT22;64044;59.904;10.738;2023-04-24T06:55:03;7.90;65.80
74294;DHT22;64044;59.904;10.738;2023-04-24T06:57:29;7.90;65.70
74294;DHT22;64044;59.904;10.738;2023-04-24T06:59:56;7.90;65.80
74294;DHT22;64044;59.904;10.738;2023-04-24T07:02:22;7.90;66.00
74294;DHT22;64044;59.904;10.738;2023-04-24T07:04:47;7.90;66.10
74294;DHT22;64044;59.904;10.738;2023-04-24T07:07:14;7.90;65.70
74294;DHT22;64044;59.904;10.738;2023-04-24T07:09:40;7.90;65.80
74294;DHT22;64044;59.904;10.738;2023-04-24T07:12:09;7.90;65.90
74294;DHT22;64044;59.904;10.738;2023-04-24T07:14:39;7.90;66.00
74294;DHT22;64044;59.904;10.738;2023-04-24T07:17:04;7.90;66.10
74294;DHT22;64044;59.904;10.738;2023-04-24T07:19:33;7.90;66.10
74294;DHT22;64044;59.904;10.738;2023-04-24T07:21:58;7.90;66.10
74294;DHT22;64044;59.904;10.738;2023-04-24T07:24:25;7.90;66.00
74294;DHT22;64044;59.904;10.738;2023-04-24T07:26:52;7.90;66.20
74294;DHT22;64044;59.904;10.738;2023-04-24T07:29:18;7.90;66.10
74294;DHT22;64044;59.904;10.738;2023-04-24T07:31:44;8.00;66.20
74294;DHT22;64044;59.904;10.738;2023-04-24T07:34:10;8.00;66.30
74294;DHT22;64044;59.904;10.738;2023-04-24T07:36:36;8.00;66.20
74294;DHT22;64044;59.904;10.738;2023-04-24T07:39:06;8.00;66.30
74294;DHT22;64044;59.904;10.738;2023-04-24T07:41:32;8.00;66.50
74294;DHT22;64044;59.904;10.738;2023-04-24T07:43:58;8.10;66.50
74294;DHT22;64044;59.904;10.738;2023-04-24T07:46:24;8.10;66.20
74294;DHT22;64044;59.904;10.738;2023-04-24T07:48:50;8.10;65.90
74294;DHT22;64044;59.904;10.738;2023-04-24T07:51:16;8.10;65.80
74294;DHT22;64044;59.904;10.738;2023-04-24T07:53:42;8.10;65.80
74294;DHT22;64044;59.904;10.738;2023-04-24T07:56:08;8.10;65.90
74294;DHT22;64044;59.904;10.738;2023-04-24T07:58:34;8.10;66.00
74294;DHT22;64044;59.904;10.738;2023-04-24T08:01:00;8.20;66.20
74294;DHT22;64044;59.904;10.738;2023-04-24T08:03:26;8.20;66.20
74294;DHT22;64044;59.904;10.738;2023-04-24T08:05:52;8.20;66.20
74294;DHT22;64044;59.904;10.738;2023-04-24T08:08:19;8.30;66.20
74294;DHT22;64044;59.904;10.738;2023-04-24T08:10:45;8.30;66.20
74294;DHT22;64044;59.904;10.738;2023-04-24T08:13:11;8.30;66.20
74294;DHT22;64044;59.904;10.738;2023-04-24T08:15:37;8.30;66.10
74294;DHT22;64044;59.904;10.738;2023-04-24T08:18:02;8.30;66.00
74294;DHT22;64044;59.904;10.738;2023-04-24T08:20:28;8.30;66.10
74294;DHT22;64044;59.904;10.738;2023-04-24T08:22:54;8.40;66.00
74294;DHT22;64044;59.904;10.738;2023-04-24T08:25:20;8.40;65.90
74294;DHT22;64044;59.904;10.738;2023-04-24T08:27:48;8.40;65.80
74294;DHT22;64044;59.904;10.738;2023-04-24T08:30:14;8.40;65.90
74294;DHT22;64044;59.904;10.738;2023-04-24T08:32:40;8.40;65.70
74294;DHT22;64044;59.904;10.738;2023-04-24T08:35:06;8.40;65.60
74294;DHT22;64044;59.904;10.738;2023-04-24T08:37:34;8.50;65.60
74294;DHT22;64044;59.904;10.738;2023-04-24T08:40:02;8.40;65.50
74294;DHT22;64044;59.904;10.738;2023-04-24T08:42:32;8.40;65.50
74294;DHT22;64044;59.904;10.738;2023-04-24T08:44:59;8.40;65.50
74294;DHT22;64044;59.904;10.738;2023-04-24T08:47:25;8.50;65.50
74294;DHT22;64044;59.904;10.738;2023-04-24T08:49:53;8.50;65.60
74294;DHT22;64044;59.904;10.738;2023-04-24T08:52:19;8.50;65.70
74294;DHT22;64044;59.904;10.738;2023-04-24T08:54:47;8.50;65.60
74294;DHT22;64044;59.904;10.738;2023-04-24T08:57:14;8.50;65.60
74294;DHT22;64044;59.904;10.738;2023-04-24T08:59:40;8.50;65.50
74294;DHT22;64044;59.904;10.738;2023-04-24T09:02:10;8.50;65.30
74294;DHT22;64044;59.904;10.738;2023-04-24T09:04:37;8.60;65.40
74294;DHT22;64044;59.904;10.738;2023-04-24T09:07:03;8.60;65.40
74294;DHT22;64044;59.904;10.738;2023-04-24T09:09:32;8.60;65.50
74294;DHT22;64044;59.904;10.738;2023-04-24T09:11:58;8.60;65.40
74294;DHT22;64044;59.904;10.738;2023-04-24T09:14:24;8.60;65.60
74294;DHT22;64044;59.904;10.738;2023-04-24T09:16:51;8.60;66.30
74294;DHT22;64044;59.904;10.738;2023-04-24T09:19:16;8.60;65.40
74294;DHT22;64044;59.904;10.738;2023-04-24T09:21:45;8.60;65.30
74294;DHT22;64044;59.904;10.738;2023-04-24T09:24:19;8.60;65.30
74294;DHT22;64044;59.904;10.738;2023-04-24T09:26:48;8.60;65.40
74294;DHT22;64044;59.904;10.738;2023-04-24T09:29:15;8.60;65.40
74294;DHT22;64044;59.904;10.738;2023-04-24T09:31:42;8.60;65.40
74294;DHT22;64044;59.904;10.738;2023-04-24T09:34:08;8.60;65.40
74294;DHT22;64044;59.904;10.738;2023-04-24T09:36:42;8.60;65.90
74294;DHT22;64044;59.904;10.738;2023-04-24T09:39:13;8.70;65.80
74294;DHT22;64044;59.904;10.738;2023-04-24T09:44:16;8.70;66.00
74294;DHT22;64044;59.904;10.738;2023-04-24T09:46:43;8.70;65.70
74294;DHT22;64044;59.904;10.738;2023-04-24T09:49:16;8.80;65.90
74294;DHT22;64044;59.904;10.738;2023-04-24T09:51:45;8.80;66.10
74294;DHT22;64044;59.904;10.738;2023-04-24T09:54:15;8.80;66.00
74294;DHT22;64044;59.904;10.738;2023-04-24T09:56:45;8.90;66.20
74294;DHT22;64044;59.904;10.738;2023-04-24T09:59:16;8.90;66.00
74294;DHT22;64044;59.904;10.738;2023-04-24T10:01:42;9.00;66.00
74294;DHT22;64044;59.904;10.738;2023-04-24T10:04:28;9.00;65.70
74294;DHT22;64044;59.904;10.738;2023-04-24T10:06:56;9.10;65.80
74294;DHT22;64044;59.904;10.738;2023-04-24T10:09:24;9.10;65.40
74294;DHT22;64044;59.904;10.738;2023-04-24T10:11:51;9.10;65.10
74294;DHT22;64044;59.904;10.738;2023-04-24T10:14:18;9.20;65.10
74294;DHT22;64044;59.904;10.738;2023-04-24T10:16:45;9.20;64.80
74294;DHT22;64044;59.904;10.738;2023-04-24T10:19:15;9.20;64.80
74294;DHT22;64044;59.904;10.738;2023-04-24T10:21:43;9.20;64.80
74294;DHT22;64044;59.904;10.738;2023-04-24T10:24:18;9.20;65.00
74294;DHT22;64044;59.904;10.738;2023-04-24T10:26:46;9.20;65.10
74294;DHT22;64044;59.904;10.738;2023-04-24T10:29:17;9.20;64.90
74294;DHT22;64044;59.904;10.738;2023-04-24T10:32:09;9.20;65.00
74294;DHT22;64044;59.904;10.738;2023-04-24T10:34:36;9.20;65.40
74294;DHT22;64044;59.904;10.738;2023-04-24T10:37:02;9.20;65.00
74294;DHT22;64044;59.904;10.738;2023-04-24T10:39:29;9.20;65.10
74294;DHT22;64044;59.904;10.738;2023-04-24T10:41:56;9.20;65.00
74294;DHT22;64044;59.904;10.738;2023-04-24T10:44:23;9.20;64.90
74294;DHT22;64044;59.904;10.738;2023-04-24T10:46:54;9.20;65.00
74294;DHT22;64044;59.904;10.738;2023-04-24T10:49:32;9.20;64.80
74294;DHT22;64044;59.904;10.738;2023-04-24T10:52:02;9.20;64.80
74294;DHT22;64044;59.904;10.738;2023-04-24T10:54:45;9.20;64.70
74294;DHT22;64044;59.904;10.738;2023-04-24T10:57:29;9.30;65.20
74294;DHT22;64044;59.904;10.738;2023-04-24T11:00:16;9.30;65.10
74294;DHT22;64044;59.904;10.738;2023-04-24T11:02:46;9.30;64.90
74294;DHT22;64044;59.904;10.738;2023-04-24T11:05:16;9.30;64.70
74294;DHT22;64044;59.904;10.738;2023-04-24T11:10:44;9.30;65.10
74294;DHT22;64044;59.904;10.738;2023-04-24T11:13:10;9.40;64.90
74294;DHT22;64044;59.904;10.738;2023-04-24T11:15:41;9.40;65.00
74294;DHT22;64044;59.904;10.738;2023-04-24T11:18:13;9.40;64.80
74294;DHT22;64044;59.904;10.738;2023-04-24T11:20:41;9.40;64.60
74294;DHT22;64044;59.904;10.738;2023-04-24T11:23:07;9.50;64.60
74294;DHT22;64044;59.904;10.738;2023-04-24T11:25:35;9.40;64.00
74294;DHT22;64044;59.904;10.738;2023-04-24T11:28:05;9.50;64.00
74294;DHT22;64044;59.904;10.738;2023-04-24T11:30:32;9.40;63.90
74294;DHT22;64044;59.904;10.738;2023-04-24T11:33:04;9.40;63.80
74294;DHT22;64044;59.904;10.738;2023-04-24T11:35:35;9.30;63.80
74294;DHT22;64044;59.904;10.738;2023-04-24T11:38:03;9.30;63.90
74294;DHT22;64044;59.904;10.738;2023-04-24T11:40:28;9.30;64.60
74294;DHT22;64044;59.904;10.738;2023-04-24T11:42:54;9.30;64.00
74294;DHT22;64044;59.904;10.738;2023-04-24T11:45:25;9.20;64.00
74294;DHT22;64044;59.904;10.738;2023-04-24T11:47:51;9.20;64.00
74294;DHT22;64044;59.904;10.738;2023-04-24T11:50:19;9.20;64.10
74294;DHT22;64044;59.904;10.738;2023-04-24T11:52:47;9.20;64.20
74294;DHT22;64044;59.904;10.738;2023-04-24T11:57:51;9.20;64.10
74294;DHT22;64044;59.904;10.738;2023-04-24T12:00:20;9.10;64.00
74294;DHT22;64044;59.904;10.738;2023-04-24T12:02:46;9.20;64.20
74294;DHT22;64044;59.904;10.738;2023-04-24T12:05:31;9.20;64.30
74294;DHT22;64044;59.904;10.738;2023-04-24T12:07:57;9.10;64.50
74294;DHT22;64044;59.904;10.738;2023-04-24T12:10:32;9.10;64.30
74294;DHT22;64044;59.904;10.738;2023-04-24T12:12:59;9.10;64.60
74294;DHT22;64044;59.904;10.738;2023-04-24T12:15:25;9.20;64.50
74294;DHT22;64044;59.904;10.738;2023-04-24T12:17:53;9.10;64.70
74294;DHT22;64044;59.904;10.738;2023-04-24T12:20:27;9.20;64.80
74294;DHT22;64044;59.904;10.738;2023-04-24T12:22:58;9.20;64.90
74294;DHT22;64044;59.904;10.738;2023-04-24T12:25:29;9.20;64.80
74294;DHT22;64044;59.904;10.738;2023-04-24T12:30:34;9.30;65.30
74294;DHT22;64044;59.904;10.738;2023-04-24T12:33:00;9.30;65.00
74294;DHT22;64044;59.904;10.738;2023-04-24T12:35:29;9.30;64.80
74294;DHT22;64044;59.904;10.738;2023-04-24T12:37:55;9.30;64.70
74294;DHT22;64044;59.904;10.738;2023-04-24T12:40:22;9.40;64.60
74294;DHT22;64044;59.904;10.738;2023-04-24T12:42:51;9.40;64.50
74294;DHT22;64044;59.904;10.738;2023-04-24T12:45:18;9.40;64.60
74294;DHT22;64044;59.904;10.738;2023-04-24T12:47:45;9.30;64.80
74294;DHT22;64044;59.904;10.738;2023-04-24T12:50:13;9.40;65.00
74294;DHT22;64044;59.904;10.738;2023-04-24T12:52:39;9.40;65.00
74294;DHT22;64044;59.904;10.738;2023-04-24T12:55:06;9.40;65.00
74294;DHT22;64044;59.904;10.738;2023-04-24T12:57:34;9.40;65.20
74294;DHT22;64044;59.904;10.738;2023-04-24T13:00:00;9.40;64.90
74294;DHT22;64044;59.904;10.738;2023-04-24T13:02:30;9.50;64.80
74294;DHT22;64044;59.904;10.738;2023-04-24T13:05:00;9.50;64.60
74294;DHT22;64044;59.904;10.738;2023-04-24T13:07:27;9.50;64.30
74294;DHT22;64044;59.904;10.738;2023-04-24T13:09:54;9.50;64.00
74294;DHT22;64044;59.904;10.738;2023-04-24T13:12:20;9.50;63.80
74294;DHT22;64044;59.904;10.738;2023-04-24T13:14:46;9.40;63.80
74294;DHT22;64044;59.904;10.738;2023-04-24T13:17:12;9.40;63.70
74294;DHT22;64044;59.904;10.738;2023-04-24T13:19:42;9.30;63.70
74294;DHT22;64044;59.904;10.738;2023-04-24T13:22:10;9.30;63.90
74294;DHT22;64044;59.904;10.738;2023-04-24T13:24:38;9.30;63.80
74294;DHT22;64044;59.904;10.738;2023-04-24T13:27:05;9.30;63.80
74294;DHT22;64044;59.904;10.738;2023-04-24T13:29:31;9.30;64.00
74294;DHT22;64044;59.904;10.738;2023-04-24T13:31:56;9.20;63.90
74294;DHT22;64044;59.904;10.738;2023-04-24T13:34:23;9.20;64.00
74294;DHT22;64044;59.904;10.738;2023-04-24T13:36:54;9.20;64.10
74294;DHT22;64044;59.904;10.738;2023-04-24T13:39:21;9.20;64.40
74294;DHT22;64044;59.904;10.738;2023-04-24T13:41:46;9.10;64.40
74294;DHT22;64044;59.904;10.738;2023-04-24T13:44:14;9.10;64.40
74294;DHT22;64044;59.904;10.738;2023-04-24T13:46:41;9.20;64.40
74294;DHT22;64044;59.904;10.738;2023-04-24T13:49:07;9.20;64.40
74294;DHT22;64044;59.904;10.738;2023-04-24T13:51:32;9.20;64.50
74294;DHT22;64044;59.904;10.738;2023-04-24T13:53:58;9.10;64.80
74294;DHT22;64044;59.904;10.738;2023-04-24T13:56:26;9.20;65.10
74294;DHT22;64044;59.904;10.738;2023-04-24T13:58:51;9.20;65.20
74294;DHT22;64044;59.904;10.738;2023-04-24T14:01:19;9.20;65.20
74294;DHT22;64044;59.904;10.738;2023-04-24T14:03:46;9.30;65.30
74294;DHT22;64044;59.904;10.738;2023-04-24T14:06:11;9.30;65.20
74294;DHT22;64044;59.904;10.738;2023-04-24T14:08:37;9.30;65.00
74294;DHT22;64044;59.904;10.738;2023-04-24T14:11:03;9.40;64.90
74294;DHT22;64044;59.904;10.738;2023-04-24T14:13:29;9.40;64.60
74294;DHT22;64044;59.904;10.738;2023-04-24T14:15:55;9.40;64.30
74294;DHT22;64044;59.904;10.738;2023-04-24T14:18:21;9.30;64.20
74294;DHT22;64044;59.904;10.738;2023-04-24T14:20:46;9.30;64.30
74294;DHT22;64044;59.904;10.738;2023-04-24T14:23:12;9.30;64.30
74294;DHT22;64044;59.904;10.738;2023-04-24T14:25:38;9.30;64.40
74294;DHT22;64044;59.904;10.738;2023-04-24T14:28:05;9.30;64.20
74294;DHT22;64044;59.904;10.738;2023-04-24T14:30:31;9.20;64.20
74294;DHT22;64044;59.904;10.738;2023-04-24T14:32:56;9.20;64.30
74294;DHT22;64044;59.904;10.738;2023-04-24T14:35:22;9.20;64.30
74294;DHT22;64044;59.904;10.738;2023-04-24T14:37:48;9.20;64.40
74294;DHT22;64044;59.904;10.738;2023-04-24T14:40:14;9.10;64.10
74294;DHT22;64044;59.904;10.738;2023-04-24T14:42:40;9.20;64.10
74294;DHT22;64044;59.904;10.738;2023-04-24T14:45:06;9.10;64.10
74294;DHT22;64044;59.904;10.738;2023-04-24T14:47:33;9.10;64.00
74294;DHT22;64044;59.904;10.738;2023-04-24T14:49:59;9.00;63.90
74294;DHT22;64044;59.904;10.738;2023-04-24T14:52:25;9.00;64.70
74294;DHT22;64044;59.904;10.738;2023-04-24T14:54:50;9.00;64.10
74294;DHT22;64044;59.904;10.738;2023-04-24T14:57:16;8.90;64.10
74294;DHT22;64044;59.904;10.738;2023-04-24T14:59:42;8.90;64.20
74294;DHT22;64044;59.904;10.738;2023-04-24T15:02:08;8.90;64.40
74294;DHT22;64044;59.904;10.738;2023-04-24T15:04:33;8.90;64.50
74294;DHT22;64044;59.904;10.738;2023-04-24T15:06:59;8.90;64.50
74294;DHT22;64044;59.904;10.738;2023-04-24T15:09:25;8.80;64.50
74294;DHT22;64044;59.904;10.738;2023-04-24T15:11:52;8.80;64.50
74294;DHT22;64044;59.904;10.738;2023-04-24T15:14:18;8.80;64.50
74294;DHT22;64044;59.904;10.738;2023-04-24T15:16:44;8.80;64.40
74294;DHT22;64044;59.904;10.738;2023-04-24T15:19:10;8.80;64.40
74294;DHT22;64044;59.904;10.738;2023-04-24T15:21:37;8.70;64.40
74294;DHT22;64044;59.904;10.738;2023-04-24T15:24:06;8.70;64.50
74294;DHT22;64044;59.904;10.738;2023-04-24T15:26:32;8.70;64.40
74294;DHT22;64044;59.904;10.738;2023-04-24T15:28:58;8.70;64.50
74294;DHT22;64044;59.904;10.738;2023-04-24T15:31:23;8.70;64.50
74294;DHT22;64044;59.904;10.738;2023-04-24T15:33:50;8.60;64.60
74294;DHT22;64044;59.904;10.738;2023-04-24T15:36:16;8.60;64.70
74294;DHT22;64044;59.904;10.738;2023-04-24T15:38:45;8.60;65.00